Аэропорт: Сургут. Сургут

ICAO: USRR

METAR:
2019-11-21 01:30:00
USRR 210130Z 28007MPS 2700 -SHSN SCT040CB M12/M15 Q1020 R25/450538 NOSIG RMK OBST OBSC QFE760
METAR:
2019-11-20 22:55:00
TAF USRR 202255Z 2100/2124 27007G14MPS 2100 -SHSN BLSN BKN011 BKN020CB TEMPO 2100/2103 0800 +SHSN BKN007 BKN017CB FM210600 28005G10MPS 6000 -SHSN BKN011 BKN015CB TEMPO 2106/2115 3100 -SHSN